sensor_id;sensor_type;location;lat;lon;timestamp;P1;durP1;ratioP1;P2;durP2;ratioP2
52274;SDS011;38228;50.940;4.024;2023-05-10T00:01:05;18.92;;;8.90;;
52274;SDS011;38228;50.940;4.024;2023-05-10T00:03:31;18.60;;;9.20;;
52274;SDS011;38228;50.940;4.024;2023-05-10T00:05:57;15.82;;;9.60;;
52274;SDS011;38228;50.940;4.024;2023-05-10T00:08:23;20.15;;;9.95;;
52274;SDS011;38228;50.940;4.024;2023-05-10T00:10:49;19.52;;;10.30;;
52274;SDS011;38228;50.940;4.024;2023-05-10T00:13:15;23.48;;;9.35;;
52274;SDS011;38228;50.940;4.024;2023-05-10T00:15:40;20.33;;;9.70;;
52274;SDS011;38228;50.940;4.024;2023-05-10T00:18:06;20.63;;;9.45;;
52274;SDS011;38228;50.940;4.024;2023-05-10T00:20:32;18.92;;;9.50;;
52274;SDS011;38228;50.940;4.024;2023-05-10T00:22:58;16.20;;;9.57;;
52274;SDS011;38228;50.940;4.024;2023-05-10T00:25:24;17.92;;;9.63;;
52274;SDS011;38228;50.940;4.024;2023-05-10T00:27:49;18.98;;;10.25;;
52274;SDS011;38228;50.940;4.024;2023-05-10T00:30:15;21.90;;;10.15;;
52274;SDS011;38228;50.940;4.024;2023-05-10T00:32:41;17.85;;;9.57;;
52274;SDS011;38228;50.940;4.024;2023-05-10T00:35:08;20.10;;;10.02;;
52274;SDS011;38228;50.940;4.024;2023-05-10T00:37:34;22.02;;;10.25;;
52274;SDS011;38228;50.940;4.024;2023-05-10T00:39:59;18.83;;;9.88;;
52274;SDS011;38228;50.940;4.024;2023-05-10T00:42:25;19.52;;;10.55;;
52274;SDS011;38228;50.940;4.024;2023-05-10T00:44:51;22.50;;;11.20;;
52274;SDS011;38228;50.940;4.024;2023-05-10T00:47:17;23.45;;;11.38;;
52274;SDS011;38228;50.940;4.024;2023-05-10T00:49:43;23.27;;;11.32;;
52274;SDS011;38228;50.940;4.024;2023-05-10T00:52:09;20.52;;;11.20;;
52274;SDS011;38228;50.940;4.024;2023-05-10T00:54:35;20.42;;;11.88;;
52274;SDS011;38228;50.940;4.024;2023-05-10T00:57:02;19.10;;;11.40;;
52274;SDS011;38228;50.940;4.024;2023-05-10T00:59:28;23.00;;;11.95;;
52274;SDS011;38228;50.940;4.024;2023-05-10T01:01:54;23.10;;;12.68;;
52274;SDS011;38228;50.940;4.024;2023-05-10T01:04:20;25.65;;;12.57;;
52274;SDS011;38228;50.940;4.024;2023-05-10T01:06:50;24.05;;;12.75;;
52274;SDS011;38228;50.940;4.024;2023-05-10T01:09:17;24.30;;;12.68;;
52274;SDS011;38228;50.940;4.024;2023-05-10T01:11:44;22.00;;;12.45;;
52274;SDS011;38228;50.940;4.024;2023-05-10T01:14:10;22.70;;;14.25;;
52274;SDS011;38228;50.940;4.024;2023-05-10T01:16:37;23.50;;;13.73;;
52274;SDS011;38228;50.940;4.024;2023-05-10T01:19:17;24.15;;;13.77;;
52274;SDS011;38228;50.940;4.024;2023-05-10T01:30:20;25.25;;;15.02;;
52274;SDS011;38228;50.940;4.024;2023-05-10T01:35:41;36.42;;;16.88;;
52274;SDS011;38228;50.940;4.024;2023-05-10T01:38:22;29.25;;;16.92;;
52274;SDS011;38228;50.940;4.024;2023-05-10T01:41:14;29.73;;;16.27;;
52274;SDS011;38228;50.940;4.024;2023-05-10T01:43:50;33.78;;;17.58;;
52274;SDS011;38228;50.940;4.024;2023-05-10T01:46:28;34.85;;;17.95;;
52274;SDS011;38228;50.940;4.024;2023-05-10T01:49:11;35.60;;;18.45;;
52274;SDS011;38228;50.940;4.024;2023-05-10T01:51:46;35.20;;;19.38;;
52274;SDS011;38228;50.940;4.024;2023-05-10T01:54:17;31.58;;;17.95;;
52274;SDS011;38228;50.940;4.024;2023-05-10T01:56:45;36.33;;;18.83;;
52274;SDS011;38228;50.940;4.024;2023-05-10T01:59:15;36.88;;;18.52;;
52274;SDS011;38228;50.940;4.024;2023-05-10T02:01:44;34.53;;;19.02;;
52274;SDS011;38228;50.940;4.024;2023-05-10T02:04:10;35.53;;;19.67;;
52274;SDS011;38228;50.940;4.024;2023-05-10T02:06:40;36.35;;;19.35;;
52274;SDS011;38228;50.940;4.024;2023-05-10T02:09:07;39.90;;;20.42;;
52274;SDS011;38228;50.940;4.024;2023-05-10T02:11:37;37.22;;;19.88;;
52274;SDS011;38228;50.940;4.024;2023-05-10T02:14:05;37.05;;;18.65;;
52274;SDS011;38228;50.940;4.024;2023-05-10T02:16:34;40.17;;;19.15;;
52274;SDS011;38228;50.940;4.024;2023-05-10T02:19:01;34.35;;;18.35;;
52274;SDS011;38228;50.940;4.024;2023-05-10T02:21:28;33.50;;;18.45;;
52274;SDS011;38228;50.940;4.024;2023-05-10T02:23:55;30.98;;;17.35;;
52274;SDS011;38228;50.940;4.024;2023-05-10T02:26:23;33.75;;;17.38;;
52274;SDS011;38228;50.940;4.024;2023-05-10T02:28:50;33.30;;;18.08;;
52274;SDS011;38228;50.940;4.024;2023-05-10T02:31:18;33.90;;;17.90;;
52274;SDS011;38228;50.940;4.024;2023-05-10T02:33:44;34.58;;;17.70;;
52274;SDS011;38228;50.940;4.024;2023-05-10T02:36:11;34.03;;;18.45;;
52274;SDS011;38228;50.940;4.024;2023-05-10T02:38:38;37.75;;;18.52;;
52274;SDS011;38228;50.940;4.024;2023-05-10T02:41:05;34.50;;;18.15;;
52274;SDS011;38228;50.940;4.024;2023-05-10T02:43:33;39.42;;;19.77;;
52274;SDS011;38228;50.940;4.024;2023-05-10T02:46:00;36.25;;;19.50;;
52274;SDS011;38228;50.940;4.024;2023-05-10T02:48:27;35.78;;;20.88;;
52274;SDS011;38228;50.940;4.024;2023-05-10T02:50:54;36.63;;;19.45;;
52274;SDS011;38228;50.940;4.024;2023-05-10T02:53:30;34.10;;;18.88;;
52274;SDS011;38228;50.940;4.024;2023-05-10T02:55:58;33.17;;;19.17;;
52274;SDS011;38228;50.940;4.024;2023-05-10T02:58:32;36.58;;;19.10;;
52274;SDS011;38228;50.940;4.024;2023-05-10T03:00:57;33.75;;;18.88;;
52274;SDS011;38228;50.940;4.024;2023-05-10T03:03:24;33.45;;;18.60;;
52274;SDS011;38228;50.940;4.024;2023-05-10T03:05:50;33.90;;;19.65;;
52274;SDS011;38228;50.940;4.024;2023-05-10T03:08:18;35.45;;;18.13;;
52274;SDS011;38228;50.940;4.024;2023-05-10T03:10:52;33.97;;;18.02;;
52274;SDS011;38228;50.940;4.024;2023-05-10T03:16:45;33.33;;;18.20;;
52274;SDS011;38228;50.940;4.024;2023-05-10T03:19:17;35.65;;;18.80;;
52274;SDS011;38228;50.940;4.024;2023-05-10T03:22:08;35.03;;;18.17;;
52274;SDS011;38228;50.940;4.024;2023-05-10T03:24:39;35.47;;;17.90;;
52274;SDS011;38228;50.940;4.024;2023-05-10T03:27:06;32.20;;;18.33;;
52274;SDS011;38228;50.940;4.024;2023-05-10T03:29:33;39.65;;;18.63;;
52274;SDS011;38228;50.940;4.024;2023-05-10T03:31:59;35.22;;;18.60;;
52274;SDS011;38228;50.940;4.024;2023-05-10T03:34:25;38.22;;;19.67;;
52274;SDS011;38228;50.940;4.024;2023-05-10T03:36:51;39.00;;;20.23;;
52274;SDS011;38228;50.940;4.024;2023-05-10T03:39:17;36.83;;;20.20;;
52274;SDS011;38228;50.940;4.024;2023-05-10T03:41:44;38.97;;;20.55;;
52274;SDS011;38228;50.940;4.024;2023-05-10T03:44:10;40.22;;;21.95;;
52274;SDS011;38228;50.940;4.024;2023-05-10T03:46:35;38.35;;;21.23;;
52274;SDS011;38228;50.940;4.024;2023-05-10T03:49:01;42.53;;;23.05;;
52274;SDS011;38228;50.940;4.024;2023-05-10T03:51:27;42.10;;;22.00;;
52274;SDS011;38228;50.940;4.024;2023-05-10T03:53:54;44.80;;;23.30;;
52274;SDS011;38228;50.940;4.024;2023-05-10T03:56:20;43.70;;;24.23;;
52274;SDS011;38228;50.940;4.024;2023-05-10T03:58:46;45.47;;;24.13;;
52274;SDS011;38228;50.940;4.024;2023-05-10T04:01:12;48.03;;;24.83;;
52274;SDS011;38228;50.940;4.024;2023-05-10T04:03:38;51.15;;;25.38;;
52274;SDS011;38228;50.940;4.024;2023-05-10T04:06:03;45.08;;;24.77;;
52274;SDS011;38228;50.940;4.024;2023-05-10T04:08:30;58.22;;;26.92;;
52274;SDS011;38228;50.940;4.024;2023-05-10T04:11:06;49.67;;;26.70;;
52274;SDS011;38228;50.940;4.024;2023-05-10T04:13:33;50.92;;;25.08;;
52274;SDS011;38228;50.940;4.024;2023-05-10T04:15:59;50.83;;;26.30;;
52274;SDS011;38228;50.940;4.024;2023-05-10T04:18:25;46.95;;;25.73;;
52274;SDS011;38228;50.940;4.024;2023-05-10T04:20:51;47.38;;;25.67;;
52274;SDS011;38228;50.940;4.024;2023-05-10T04:23:17;48.30;;;25.00;;
52274;SDS011;38228;50.940;4.024;2023-05-10T04:25:43;49.38;;;26.52;;
52274;SDS011;38228;50.940;4.024;2023-05-10T04:28:08;48.40;;;25.65;;
52274;SDS011;38228;50.940;4.024;2023-05-10T04:30:34;50.63;;;25.92;;
52274;SDS011;38228;50.940;4.024;2023-05-10T04:33:00;50.55;;;25.52;;
52274;SDS011;38228;50.940;4.024;2023-05-10T04:35:29;48.33;;;24.30;;
52274;SDS011;38228;50.940;4.024;2023-05-10T04:37:55;46.65;;;24.08;;
52274;SDS011;38228;50.940;4.024;2023-05-10T04:40:21;52.40;;;25.10;;
52274;SDS011;38228;50.940;4.024;2023-05-10T04:42:46;52.28;;;25.13;;
52274;SDS011;38228;50.940;4.024;2023-05-10T04:45:12;51.80;;;24.77;;
52274;SDS011;38228;50.940;4.024;2023-05-10T04:47:39;48.80;;;24.20;;
52274;SDS011;38228;50.940;4.024;2023-05-10T04:50:05;47.17;;;24.30;;
52274;SDS011;38228;50.940;4.024;2023-05-10T04:52:32;51.03;;;23.88;;
52274;SDS011;38228;50.940;4.024;2023-05-10T04:54:58;49.53;;;24.85;;
52274;SDS011;38228;50.940;4.024;2023-05-10T04:57:24;50.00;;;24.60;;
52274;SDS011;38228;50.940;4.024;2023-05-10T04:59:50;51.70;;;24.52;;
52274;SDS011;38228;50.940;4.024;2023-05-10T05:02:17;52.00;;;24.77;;
52274;SDS011;38228;50.940;4.024;2023-05-10T05:04:42;48.47;;;24.85;;
52274;SDS011;38228;50.940;4.024;2023-05-10T05:07:08;51.63;;;26.20;;
52274;SDS011;38228;50.940;4.024;2023-05-10T05:09:34;51.97;;;24.77;;
52274;SDS011;38228;50.940;4.024;2023-05-10T05:12:00;49.42;;;24.30;;
52274;SDS011;38228;50.940;4.024;2023-05-10T05:14:25;49.33;;;25.23;;
52274;SDS011;38228;50.940;4.024;2023-05-10T05:16:51;46.50;;;24.33;;
52274;SDS011;38228;50.940;4.024;2023-05-10T05:19:18;49.30;;;25.05;;
52274;SDS011;38228;50.940;4.024;2023-05-10T05:21:43;50.78;;;26.30;;
52274;SDS011;38228;50.940;4.024;2023-05-10T05:24:09;55.42;;;27.02;;
52274;SDS011;38228;50.940;4.024;2023-05-10T05:26:36;53.17;;;26.00;;
52274;SDS011;38228;50.940;4.024;2023-05-10T05:29:02;59.78;;;27.65;;
52274;SDS011;38228;50.940;4.024;2023-05-10T05:31:28;55.97;;;26.98;;
52274;SDS011;38228;50.940;4.024;2023-05-10T05:33:54;57.92;;;27.27;;
52274;SDS011;38228;50.940;4.024;2023-05-10T05:36:20;61.80;;;28.25;;
52274;SDS011;38228;50.940;4.024;2023-05-10T05:38:46;52.33;;;27.08;;
52274;SDS011;38228;50.940;4.024;2023-05-10T05:41:12;52.53;;;26.05;;
52274;SDS011;38228;50.940;4.024;2023-05-10T05:43:38;57.10;;;27.63;;
52274;SDS011;38228;50.940;4.024;2023-05-10T05:46:04;49.30;;;25.38;;
52274;SDS011;38228;50.940;4.024;2023-05-10T05:48:30;54.95;;;26.70;;
52274;SDS011;38228;50.940;4.024;2023-05-10T05:50:56;60.72;;;27.17;;
52274;SDS011;38228;50.940;4.024;2023-05-10T05:53:22;56.75;;;26.73;;
52274;SDS011;38228;50.940;4.024;2023-05-10T05:55:55;56.38;;;25.63;;
52274;SDS011;38228;50.940;4.024;2023-05-10T05:58:22;55.90;;;26.20;;
52274;SDS011;38228;50.940;4.024;2023-05-10T06:00:49;57.20;;;27.73;;
52274;SDS011;38228;50.940;4.024;2023-05-10T06:03:16;59.33;;;26.80;;
52274;SDS011;38228;50.940;4.024;2023-05-10T06:05:42;52.20;;;26.50;;
52274;SDS011;38228;50.940;4.024;2023-05-10T06:08:07;56.95;;;27.05;;
52274;SDS011;38228;50.940;4.024;2023-05-10T06:10:33;62.03;;;29.05;;
52274;SDS011;38228;50.940;4.024;2023-05-10T06:12:59;54.00;;;25.80;;
52274;SDS011;38228;50.940;4.024;2023-05-10T06:15:25;57.47;;;27.35;;
52274;SDS011;38228;50.940;4.024;2023-05-10T06:17:51;67.63;;;27.75;;
52274;SDS011;38228;50.940;4.024;2023-05-10T06:20:17;55.60;;;26.33;;
52274;SDS011;38228;50.940;4.024;2023-05-10T06:22:43;56.88;;;26.45;;
52274;SDS011;38228;50.940;4.024;2023-05-10T06:25:09;54.08;;;25.10;;
52274;SDS011;38228;50.940;4.024;2023-05-10T06:27:36;59.38;;;26.48;;
52274;SDS011;38228;50.940;4.024;2023-05-10T06:30:02;54.20;;;25.75;;
52274;SDS011;38228;50.940;4.024;2023-05-10T06:32:30;54.05;;;25.27;;
52274;SDS011;38228;50.940;4.024;2023-05-10T06:34:55;52.50;;;24.75;;
52274;SDS011;38228;50.940;4.024;2023-05-10T06:37:21;55.00;;;26.65;;
52274;SDS011;38228;50.940;4.024;2023-05-10T06:39:47;57.00;;;26.42;;
52274;SDS011;38228;50.940;4.024;2023-05-10T06:42:13;56.10;;;26.30;;
52274;SDS011;38228;50.940;4.024;2023-05-10T06:44:39;53.17;;;24.60;;
52274;SDS011;38228;50.940;4.024;2023-05-10T06:47:05;57.55;;;25.38;;
52274;SDS011;38228;50.940;4.024;2023-05-10T06:49:30;59.00;;;25.70;;
52274;SDS011;38228;50.940;4.024;2023-05-10T06:51:56;62.03;;;23.90;;
52274;SDS011;38228;50.940;4.024;2023-05-10T06:54:25;56.17;;;22.83;;
52274;SDS011;38228;50.940;4.024;2023-05-10T06:56:51;62.33;;;23.08;;
52274;SDS011;38228;50.940;4.024;2023-05-10T06:59:17;53.70;;;22.52;;
52274;SDS011;38228;50.940;4.024;2023-05-10T07:01:44;58.60;;;21.83;;
52274;SDS011;38228;50.940;4.024;2023-05-10T07:04:10;50.95;;;22.52;;
52274;SDS011;38228;50.940;4.024;2023-05-10T07:06:36;53.55;;;22.02;;
52274;SDS011;38228;50.940;4.024;2023-05-10T07:09:02;46.72;;;21.75;;
52274;SDS011;38228;50.940;4.024;2023-05-10T07:11:27;50.33;;;23.45;;
52274;SDS011;38228;50.940;4.024;2023-05-10T07:13:54;52.85;;;22.95;;
52274;SDS011;38228;50.940;4.024;2023-05-10T07:16:19;52.20;;;22.73;;
52274;SDS011;38228;50.940;4.024;2023-05-10T07:18:46;49.75;;;22.08;;
52274;SDS011;38228;50.940;4.024;2023-05-10T07:21:12;52.78;;;22.05;;
52274;SDS011;38228;50.940;4.024;2023-05-10T07:23:38;43.75;;;21.60;;
52274;SDS011;38228;50.940;4.024;2023-05-10T07:26:03;46.50;;;21.50;;
52274;SDS011;38228;50.940;4.024;2023-05-10T07:28:29;45.15;;;22.13;;
52274;SDS011;38228;50.940;4.024;2023-05-10T07:30:55;47.75;;;22.45;;
52274;SDS011;38228;50.940;4.024;2023-05-10T07:33:21;47.70;;;22.52;;
52274;SDS011;38228;50.940;4.024;2023-05-10T07:35:47;47.70;;;22.88;;
52274;SDS011;38228;50.940;4.024;2023-05-10T07:38:13;51.00;;;22.27;;
52274;SDS011;38228;50.940;4.024;2023-05-10T07:40:39;43.50;;;22.05;;
52274;SDS011;38228;50.940;4.024;2023-05-10T07:43:05;46.20;;;20.70;;
52274;SDS011;38228;50.940;4.024;2023-05-10T07:45:31;42.63;;;20.63;;
52274;SDS011;38228;50.940;4.024;2023-05-10T07:47:56;37.28;;;19.17;;
52274;SDS011;38228;50.940;4.024;2023-05-10T07:50:22;39.45;;;19.80;;
52274;SDS011;38228;50.940;4.024;2023-05-10T07:52:48;36.65;;;18.80;;
52274;SDS011;38228;50.940;4.024;2023-05-10T07:55:14;38.78;;;18.23;;
52274;SDS011;38228;50.940;4.024;2023-05-10T07:57:39;37.45;;;17.50;;
52274;SDS011;38228;50.940;4.024;2023-05-10T08:00:06;34.55;;;18.30;;
52274;SDS011;38228;50.940;4.024;2023-05-10T08:02:33;37.17;;;18.05;;
52274;SDS011;38228;50.940;4.024;2023-05-10T08:05:00;32.08;;;16.55;;
52274;SDS011;38228;50.940;4.024;2023-05-10T08:07:26;39.15;;;17.52;;
52274;SDS011;38228;50.940;4.024;2023-05-10T08:09:51;39.17;;;18.00;;
52274;SDS011;38228;50.940;4.024;2023-05-10T08:12:17;37.10;;;17.80;;
52274;SDS011;38228;50.940;4.024;2023-05-10T08:14:43;36.72;;;17.00;;
52274;SDS011;38228;50.940;4.024;2023-05-10T08:17:09;37.22;;;16.20;;
52274;SDS011;38228;50.940;4.024;2023-05-10T08:19:34;35.00;;;15.27;;
52274;SDS011;38228;50.940;4.024;2023-05-10T08:22:00;35.30;;;15.40;;
52274;SDS011;38228;50.940;4.024;2023-05-10T08:24:26;31.70;;;14.82;;
52274;SDS011;38228;50.940;4.024;2023-05-10T08:26:52;28.77;;;13.77;;
52274;SDS011;38228;50.940;4.024;2023-05-10T08:29:18;30.25;;;14.80;;
52274;SDS011;38228;50.940;4.024;2023-05-10T08:31:44;28.98;;;13.15;;
52274;SDS011;38228;50.940;4.024;2023-05-10T08:34:10;26.20;;;12.52;;
52274;SDS011;38228;50.940;4.024;2023-05-10T08:36:35;28.33;;;13.32;;
52274;SDS011;38228;50.940;4.024;2023-05-10T08:39:01;26.27;;;12.75;;
52274;SDS011;38228;50.940;4.024;2023-05-10T08:41:27;32.78;;;12.38;;
52274;SDS011;38228;50.940;4.024;2023-05-10T08:43:57;26.90;;;11.98;;
52274;SDS011;38228;50.940;4.024;2023-05-10T08:46:25;31.55;;;12.25;;
52274;SDS011;38228;50.940;4.024;2023-05-10T08:48:52;21.40;;;12.40;;
52274;SDS011;38228;50.940;4.024;2023-05-10T08:51:22;25.83;;;11.73;;
52274;SDS011;38228;50.940;4.024;2023-05-10T08:53:51;23.30;;;12.02;;
52274;SDS011;38228;50.940;4.024;2023-05-10T08:56:17;22.25;;;11.18;;
52274;SDS011;38228;50.940;4.024;2023-05-10T08:58:45;30.80;;;12.73;;
52274;SDS011;38228;50.940;4.024;2023-05-10T09:01:11;27.00;;;12.35;;
52274;SDS011;38228;50.940;4.024;2023-05-10T09:03:38;20.73;;;11.65;;
52274;SDS011;38228;50.940;4.024;2023-05-10T09:06:05;28.10;;;12.75;;
52274;SDS011;38228;50.940;4.024;2023-05-10T09:08:32;25.38;;;12.07;;
52274;SDS011;38228;50.940;4.024;2023-05-10T09:10:59;25.05;;;12.15;;
52274;SDS011;38228;50.940;4.024;2023-05-10T09:13:26;26.08;;;12.40;;
52274;SDS011;38228;50.940;4.024;2023-05-10T09:15:53;19.58;;;12.18;;
52274;SDS011;38228;50.940;4.024;2023-05-10T09:18:19;23.25;;;10.50;;
52274;SDS011;38228;50.940;4.024;2023-05-10T09:20:53;21.60;;;11.85;;
52274;SDS011;38228;50.940;4.024;2023-05-10T09:23:19;23.38;;;11.43;;
52274;SDS011;38228;50.940;4.024;2023-05-10T09:25:45;21.38;;;11.63;;
52274;SDS011;38228;50.940;4.024;2023-05-10T09:28:12;21.75;;;11.18;;
52274;SDS011;38228;50.940;4.024;2023-05-10T09:30:38;18.73;;;10.23;;
52274;SDS011;38228;50.940;4.024;2023-05-10T09:33:04;19.77;;;10.98;;
52274;SDS011;38228;50.940;4.024;2023-05-10T09:35:30;23.20;;;10.65;;
52274;SDS011;38228;50.940;4.024;2023-05-10T09:38:02;19.52;;;10.05;;
52274;SDS011;38228;50.940;4.024;2023-05-10T09:40:29;16.55;;;10.35;;
52274;SDS011;38228;50.940;4.024;2023-05-10T09:45:36;17.55;;;9.77;;
52274;SDS011;38228;50.940;4.024;2023-05-10T09:48:02;14.43;;;9.32;;
52274;SDS011;38228;50.940;4.024;2023-05-10T09:50:29;19.58;;;11.13;;
52274;SDS011;38228;50.940;4.024;2023-05-10T09:52:59;17.35;;;10.40;;
52274;SDS011;38228;50.940;4.024;2023-05-10T09:55:40;20.75;;;10.80;;
52274;SDS011;38228;50.940;4.024;2023-05-10T09:58:11;20.13;;;11.45;;
52274;SDS011;38228;50.940;4.024;2023-05-10T10:00:45;21.98;;;12.18;;
52274;SDS011;38228;50.940;4.024;2023-05-10T10:03:18;19.45;;;10.90;;
52274;SDS011;38228;50.940;4.024;2023-05-10T10:05:46;17.58;;;10.10;;
52274;SDS011;38228;50.940;4.024;2023-05-10T10:08:13;16.25;;;10.45;;
52274;SDS011;38228;50.940;4.024;2023-05-10T10:10:39;13.20;;;9.43;;
52274;SDS011;38228;50.940;4.024;2023-05-10T10:13:06;17.27;;;10.50;;
52274;SDS011;38228;50.940;4.024;2023-05-10T10:15:33;16.13;;;10.68;;
52274;SDS011;38228;50.940;4.024;2023-05-10T10:17:59;13.73;;;10.43;;
52274;SDS011;38228;50.940;4.024;2023-05-10T10:20:26;14.48;;;10.48;;
52274;SDS011;38228;50.940;4.024;2023-05-10T10:22:54;16.25;;;10.57;;
52274;SDS011;38228;50.940;4.024;2023-05-10T10:25:20;14.63;;;10.30;;
52274;SDS011;38228;50.940;4.024;2023-05-10T10:30:25;13.57;;;10.65;;
52274;SDS011;38228;50.940;4.024;2023-05-10T10:32:59;16.10;;;10.93;;
52274;SDS011;38228;50.940;4.024;2023-05-10T10:35:28;16.73;;;10.45;;
52274;SDS011;38228;50.940;4.024;2023-05-10T10:37:56;16.33;;;11.13;;
52274;SDS011;38228;50.940;4.024;2023-05-10T10:40:22;17.02;;;10.68;;
52274;SDS011;38228;50.940;4.024;2023-05-10T10:42:52;15.23;;;11.73;;
52274;SDS011;38228;50.940;4.024;2023-05-10T10:45:19;20.40;;;12.40;;
52274;SDS011;38228;50.940;4.024;2023-05-10T10:47:46;16.85;;;11.10;;
52274;SDS011;38228;50.940;4.024;2023-05-10T10:50:12;15.82;;;11.10;;
52274;SDS011;38228;50.940;4.024;2023-05-10T10:52:41;16.52;;;10.10;;
52274;SDS011;38228;50.940;4.024;2023-05-10T11:00:29;15.73;;;10.17;;
52274;SDS011;38228;50.940;4.024;2023-05-10T11:03:10;15.02;;;10.77;;
52274;SDS011;38228;50.940;4.024;2023-05-10T11:05:50;16.30;;;10.60;;
52274;SDS011;38228;50.940;4.024;2023-05-10T11:08:26;15.95;;;11.38;;
52274;SDS011;38228;50.940;4.024;2023-05-10T11:18:38;16.05;;;10.57;;
52274;SDS011;38228;50.940;4.024;2023-05-10T11:21:04;19.50;;;11.60;;
52274;SDS011;38228;50.940;4.024;2023-05-10T11:26:09;17.13;;;10.65;;
52274;SDS011;38228;50.940;4.024;2023-05-10T11:28:41;15.70;;;11.50;;
52274;SDS011;38228;50.940;4.024;2023-05-10T11:31:14;19.65;;;10.93;;
52274;SDS011;38228;50.940;4.024;2023-05-10T11:33:44;17.47;;;10.80;;
52274;SDS011;38228;50.940;4.024;2023-05-10T11:36:13;14.65;;;10.25;;
52274;SDS011;38228;50.940;4.024;2023-05-10T11:38:41;19.27;;;11.45;;
52274;SDS011;38228;50.940;4.024;2023-05-10T11:41:10;17.27;;;10.13;;
52274;SDS011;38228;50.940;4.024;2023-05-10T11:43:40;17.35;;;10.32;;
52274;SDS011;38228;50.940;4.024;2023-05-10T11:46:07;17.25;;;10.68;;
52274;SDS011;38228;50.940;4.024;2023-05-10T11:48:35;16.88;;;11.02;;
52274;SDS011;38228;50.940;4.024;2023-05-10T11:51:01;17.35;;;10.65;;
52274;SDS011;38228;50.940;4.024;2023-05-10T11:53:31;15.32;;;10.23;;
52274;SDS011;38228;50.940;4.024;2023-05-10T11:56:09;19.10;;;10.82;;
52274;SDS011;38228;50.940;4.024;2023-05-10T11:58:36;16.08;;;11.10;;
52274;SDS011;38228;50.940;4.024;2023-05-10T12:01:05;14.27;;;10.23;;
52274;SDS011;38228;50.940;4.024;2023-05-10T12:03:33;14.48;;;9.98;;
52274;SDS011;38228;50.940;4.024;2023-05-10T12:05:59;17.10;;;11.75;;
52274;SDS011;38228;50.940;4.024;2023-05-10T12:08:27;16.73;;;10.63;;
52274;SDS011;38228;50.940;4.024;2023-05-10T12:11:07;15.10;;;10.68;;
52274;SDS011;38228;50.940;4.024;2023-05-10T12:13:39;19.35;;;11.55;;
52274;SDS011;38228;50.940;4.024;2023-05-10T12:16:18;17.70;;;11.18;;
52274;SDS011;38228;50.940;4.024;2023-05-10T12:18:49;20.08;;;11.70;;
52274;SDS011;38228;50.940;4.024;2023-05-10T12:21:22;16.05;;;11.52;;
52274;SDS011;38228;50.940;4.024;2023-05-10T12:23:52;13.95;;;11.48;;
52274;SDS011;38228;50.940;4.024;2023-05-10T12:26:22;17.42;;;11.93;;
52274;SDS011;38228;50.940;4.024;2023-05-10T12:28:49;15.75;;;11.23;;
52274;SDS011;38228;50.940;4.024;2023-05-10T12:31:15;17.70;;;11.77;;
52274;SDS011;38228;50.940;4.024;2023-05-10T12:33:42;18.88;;;11.50;;
52274;SDS011;38228;50.940;4.024;2023-05-10T12:36:13;17.20;;;12.40;;
52274;SDS011;38228;50.940;4.024;2023-05-10T12:38:40;18.70;;;12.15;;
52274;SDS011;38228;50.940;4.024;2023-05-10T12:41:08;19.73;;;12.25;;
52274;SDS011;38228;50.940;4.024;2023-05-10T12:43:35;16.67;;;11.80;;
52274;SDS011;38228;50.940;4.024;2023-05-10T12:46:09;21.45;;;13.00;;
52274;SDS011;38228;50.940;4.024;2023-05-10T12:48:36;18.95;;;12.80;;
52274;SDS011;38228;50.940;4.024;2023-05-10T12:51:03;18.45;;;13.68;;
52274;SDS011;38228;50.940;4.024;2023-05-10T12:53:29;20.85;;;13.48;;
52274;SDS011;38228;50.940;4.024;2023-05-10T12:55:56;19.83;;;12.77;;
52274;SDS011;38228;50.940;4.024;2023-05-10T12:58:22;18.48;;;13.15;;
52274;SDS011;38228;50.940;4.024;2023-05-10T13:00:48;19.67;;;13.50;;
52274;SDS011;38228;50.940;4.024;2023-05-10T13:03:16;17.75;;;12.80;;
52274;SDS011;38228;50.940;4.024;2023-05-10T13:05:42;20.45;;;13.73;;
52274;SDS011;38228;50.940;4.024;2023-05-10T13:08:08;24.63;;;13.32;;
52274;SDS011;38228;50.940;4.024;2023-05-10T13:10:34;23.92;;;13.30;;
52274;SDS011;38228;50.940;4.024;2023-05-10T13:13:00;21.52;;;14.77;;
52274;SDS011;38228;50.940;4.024;2023-05-10T13:15:26;20.80;;;14.65;;
52274;SDS011;38228;50.940;4.024;2023-05-10T13:17:53;25.15;;;14.50;;
52274;SDS011;38228;50.940;4.024;2023-05-10T13:20:19;20.00;;;14.38;;
52274;SDS011;38228;50.940;4.024;2023-05-10T13:22:45;21.27;;;14.70;;
52274;SDS011;38228;50.940;4.024;2023-05-10T13:25:12;22.27;;;15.15;;
52274;SDS011;38228;50.940;4.024;2023-05-10T13:27:41;20.90;;;14.27;;
52274;SDS011;38228;50.940;4.024;2023-05-10T13:30:07;19.75;;;13.82;;
52274;SDS011;38228;50.940;4.024;2023-05-10T13:32:34;19.02;;;13.00;;
52274;SDS011;38228;50.940;4.024;2023-05-10T13:35:00;17.25;;;12.32;;
52274;SDS011;38228;50.940;4.024;2023-05-10T13:37:28;19.05;;;13.15;;
52274;SDS011;38228;50.940;4.024;2023-05-10T13:39:55;19.45;;;13.00;;
52274;SDS011;38228;50.940;4.024;2023-05-10T13:42:21;19.52;;;13.30;;
52274;SDS011;38228;50.940;4.024;2023-05-10T13:44:48;18.80;;;13.00;;
52274;SDS011;38228;50.940;4.024;2023-05-10T13:47:14;18.50;;;13.35;;
52274;SDS011;38228;50.940;4.024;2023-05-10T13:49:40;19.88;;;13.13;;
52274;SDS011;38228;50.940;4.024;2023-05-10T13:52:06;24.60;;;14.30;;
52274;SDS011;38228;50.940;4.024;2023-05-10T13:54:35;20.67;;;14.30;;
52274;SDS011;38228;50.940;4.024;2023-05-10T13:57:02;24.83;;;14.80;;
52274;SDS011;38228;50.940;4.024;2023-05-10T13:59:28;23.20;;;15.40;;
52274;SDS011;38228;50.940;4.024;2023-05-10T14:01:56;21.80;;;15.45;;
52274;SDS011;38228;50.940;4.024;2023-05-10T14:04:23;24.85;;;15.68;;
52274;SDS011;38228;50.940;4.024;2023-05-10T14:06:49;23.20;;;15.98;;
52274;SDS011;38228;50.940;4.024;2023-05-10T14:09:15;25.15;;;15.82;;
52274;SDS011;38228;50.940;4.024;2023-05-10T14:11:41;23.58;;;16.00;;
52274;SDS011;38228;50.940;4.024;2023-05-10T14:14:11;22.85;;;15.20;;
52274;SDS011;38228;50.940;4.024;2023-05-10T14:16:37;23.20;;;14.95;;
52274;SDS011;38228;50.940;4.024;2023-05-10T14:19:03;33.58;;;17.13;;
52274;SDS011;38228;50.940;4.024;2023-05-10T14:21:29;22.98;;;15.45;;
52274;SDS011;38228;50.940;4.024;2023-05-10T14:23:55;22.35;;;14.73;;
52274;SDS011;38228;50.940;4.024;2023-05-10T14:26:22;27.40;;;16.23;;
52274;SDS011;38228;50.940;4.024;2023-05-10T14:28:48;21.52;;;12.48;;
52274;SDS011;38228;50.940;4.024;2023-05-10T14:31:13;16.77;;;7.88;;
52274;SDS011;38228;50.940;4.024;2023-05-10T14:33:41;18.13;;;9.02;;
52274;SDS011;38228;50.940;4.024;2023-05-10T14:36:07;17.15;;;9.07;;
52274;SDS011;38228;50.940;4.024;2023-05-10T14:38:33;13.88;;;5.63;;
52274;SDS011;38228;50.940;4.024;2023-05-10T14:40:59;13.43;;;6.75;;
52274;SDS011;38228;50.940;4.024;2023-05-10T14:43:25;14.48;;;5.70;;
52274;SDS011;38228;50.940;4.024;2023-05-10T14:45:52;10.65;;;5.65;;
52274;SDS011;38228;50.940;4.024;2023-05-10T14:48:19;13.80;;;5.78;;
52274;SDS011;38228;50.940;4.024;2023-05-10T14:50:46;16.83;;;6.40;;
52274;SDS011;38228;50.940;4.024;2023-05-10T14:53:12;14.15;;;5.68;;
52274;SDS011;38228;50.940;4.024;2023-05-10T14:55:37;13.57;;;5.80;;
52274;SDS011;38228;50.940;4.024;2023-05-10T14:58:04;14.23;;;6.25;;
52274;SDS011;38228;50.940;4.024;2023-05-10T15:00:30;15.20;;;5.90;;